Main page
METAR-TAF:

METAR-TAF

Airports :

Dübendorf Air Base

Dübendorf, Switzerland

latitude: 47-23-55N, longitude: 8-38-53E, elevation: 448 m

Current weather observation

The report was made 1 hour and 4 minutes ago, at 13:50 UTC
Wind 4 kt from the West/Northwest, varying between West and North
Temperature 20°C
Humidity 40%
Pressure 1024 hPa
Visibility 10 km or more
Scattered clouds at a height of 6800 ft

METAR: LSMD 221350Z AUTO 30004KT 260V360 9999NDV SCT068 20/06 Q1024 RMK

Time: 16:54 (14:54 UTC)


TAF: missing

Weather observations and forecasts of more than 4000 airports (METAR and TAF reports).

The available stations are represented by yellow and red dots on the map.

Hover mouse over dot to see the name of the station.

Then click to see weather observations and forecasts.

To change the map : click on the green buttons with a black cross to zoom in, on the green button with a dash to zoom out, or on the green arrows for adjacent maps.


METAR-TAF: